sensor_id;sensor_type;location;lat;lon;timestamp;pressure;altitude;pressure_sealevel;temperature;humidity
66196;BME280;53000;45.182;5.736;2022-08-14T00:00:45;98609.91;;;28.61;21.48
66196;BME280;53000;45.182;5.736;2022-08-14T00:03:25;98617.50;;;28.55;22.02
66196;BME280;53000;45.182;5.736;2022-08-14T00:05:51;98617.28;;;28.51;22.06
66196;BME280;53000;45.182;5.736;2022-08-14T00:08:17;98617.91;;;28.48;22.38
66196;BME280;53000;45.182;5.736;2022-08-14T00:10:43;98600.94;;;28.45;21.97
66196;BME280;53000;45.182;5.736;2022-08-14T00:13:09;98600.41;;;28.43;22.20
66196;BME280;53000;45.182;5.736;2022-08-14T00:15:39;98588.56;;;28.37;21.73
66196;BME280;53000;45.182;5.736;2022-08-14T00:18:07;98582.75;;;28.33;22.18
66196;BME280;53000;45.182;5.736;2022-08-14T00:20:34;98589.13;;;28.34;22.08
66196;BME280;53000;45.182;5.736;2022-08-14T00:23:03;98573.88;;;28.31;22.33
66196;BME280;53000;45.182;5.736;2022-08-14T00:25:30;98584.19;;;28.31;22.81
66196;BME280;53000;45.182;5.736;2022-08-14T00:27:55;98582.84;;;28.28;22.84
66196;BME280;53000;45.182;5.736;2022-08-14T00:30:21;98580.47;;;28.22;22.77
66196;BME280;53000;45.182;5.736;2022-08-14T00:32:46;98588.47;;;28.23;23.06
66196;BME280;53000;45.182;5.736;2022-08-14T00:35:12;98589.91;;;28.21;22.63
66196;BME280;53000;45.182;5.736;2022-08-14T00:37:39;98574.66;;;28.18;23.22
66196;BME280;53000;45.182;5.736;2022-08-14T00:40:06;98570.06;;;28.08;22.60
66196;BME280;53000;45.182;5.736;2022-08-14T00:42:32;98565.13;;;28.05;23.64
66196;BME280;53000;45.182;5.736;2022-08-14T00:44:58;98557.88;;;28.04;22.70
66196;BME280;53000;45.182;5.736;2022-08-14T00:47:23;98542.44;;;27.98;22.82
66196;BME280;53000;45.182;5.736;2022-08-14T00:49:50;98555.44;;;28.03;22.80
66196;BME280;53000;45.182;5.736;2022-08-14T00:52:18;98555.44;;;28.03;22.51
66196;BME280;53000;45.182;5.736;2022-08-14T00:54:46;98554.09;;;28.00;22.60
66196;BME280;53000;45.182;5.736;2022-08-14T00:57:14;98550.16;;;28.01;23.34
66196;BME280;53000;45.182;5.736;2022-08-14T00:59:40;98547.66;;;28.00;23.57
66196;BME280;53000;45.182;5.736;2022-08-14T01:02:05;98544.38;;;27.98;23.22
66196;BME280;53000;45.182;5.736;2022-08-14T01:04:33;98537.47;;;27.95;23.57
66196;BME280;53000;45.182;5.736;2022-08-14T01:07:00;98542.50;;;27.93;23.81
66196;BME280;53000;45.182;5.736;2022-08-14T01:09:27;98537.22;;;27.91;23.34
66196;BME280;53000;45.182;5.736;2022-08-14T01:11:53;98533.63;;;27.91;23.13
66196;BME280;53000;45.182;5.736;2022-08-14T01:14:21;98532.28;;;27.88;23.30
66196;BME280;53000;45.182;5.736;2022-08-14T01:16:46;98534.78;;;27.85;23.13
66196;BME280;53000;45.182;5.736;2022-08-14T01:19:13;98524.22;;;27.87;23.60
66196;BME280;53000;45.182;5.736;2022-08-14T01:21:57;98533.72;;;27.86;23.20
66196;BME280;53000;45.182;5.736;2022-08-14T01:24:23;98526.19;;;27.86;23.79
66196;BME280;53000;45.182;5.736;2022-08-14T01:26:49;98525.38;;;27.86;24.11
66196;BME280;53000;45.182;5.736;2022-08-14T01:29:16;98526.44;;;27.85;23.70
66196;BME280;53000;45.182;5.736;2022-08-14T01:31:44;98519.81;;;27.86;23.86
66196;BME280;53000;45.182;5.736;2022-08-14T01:34:12;98522.84;;;27.84;24.04
66196;BME280;53000;45.182;5.736;2022-08-14T01:36:38;98532.34;;;27.83;24.01
66196;BME280;53000;45.182;5.736;2022-08-14T01:39:12;98519.25;;;27.84;23.95
66196;BME280;53000;45.182;5.736;2022-08-14T01:41:40;98521.50;;;27.82;23.56
66196;BME280;53000;45.182;5.736;2022-08-14T01:44:08;98515.41;;;27.80;23.76
66196;BME280;53000;45.182;5.736;2022-08-14T01:46:38;98506.03;;;27.76;24.19
66196;BME280;53000;45.182;5.736;2022-08-14T01:49:07;98500.56;;;27.70;23.91
66196;BME280;53000;45.182;5.736;2022-08-14T01:51:35;98504.81;;;27.63;23.67
66196;BME280;53000;45.182;5.736;2022-08-14T01:54:04;98500.16;;;27.58;24.11
66196;BME280;53000;45.182;5.736;2022-08-14T01:56:32;98487.09;;;27.59;24.61
66196;BME280;53000;45.182;5.736;2022-08-14T01:59:07;98484.09;;;27.55;24.07
66196;BME280;53000;45.182;5.736;2022-08-14T02:01:33;98490.25;;;27.52;24.59
66196;BME280;53000;45.182;5.736;2022-08-14T02:04:01;98491.69;;;27.49;24.57
66196;BME280;53000;45.182;5.736;2022-08-14T02:06:27;98496.41;;;27.49;24.62
66196;BME280;53000;45.182;5.736;2022-08-14T02:08:53;98490.00;;;27.48;24.14
66196;BME280;53000;45.182;5.736;2022-08-14T02:11:19;98495.91;;;27.47;24.46
66196;BME280;53000;45.182;5.736;2022-08-14T02:14:13;98489.28;;;27.43;24.90
66196;BME280;53000;45.182;5.736;2022-08-14T02:16:44;98486.50;;;27.43;25.00
66196;BME280;53000;45.182;5.736;2022-08-14T02:19:14;98486.56;;;27.38;24.58
66196;BME280;53000;45.182;5.736;2022-08-14T02:21:44;98489.41;;;27.32;24.48
66196;BME280;53000;45.182;5.736;2022-08-14T02:24:11;98483.03;;;27.32;25.04
66196;BME280;53000;45.182;5.736;2022-08-14T02:26:39;98485.28;;;27.30;25.28
66196;BME280;53000;45.182;5.736;2022-08-14T02:29:08;98479.78;;;27.25;24.96
66196;BME280;53000;45.182;5.736;2022-08-14T02:31:36;98470.34;;;27.21;25.02
66196;BME280;53000;45.182;5.736;2022-08-14T02:34:08;98472.09;;;27.17;25.13
66196;BME280;53000;45.182;5.736;2022-08-14T02:36:38;98476.81;;;27.16;25.89
66196;BME280;53000;45.182;5.736;2022-08-14T02:39:06;98471.34;;;27.11;25.46
66196;BME280;53000;45.182;5.736;2022-08-14T02:41:32;98486.66;;;27.08;25.52
66196;BME280;53000;45.182;5.736;2022-08-14T02:43:58;98495.00;;;27.08;25.72
66196;BME280;53000;45.182;5.736;2022-08-14T02:46:24;98490.00;;;27.05;25.46
66196;BME280;53000;45.182;5.736;2022-08-14T02:48:50;98481.75;;;27.00;25.95
66196;BME280;53000;45.182;5.736;2022-08-14T02:51:15;98491.50;;;26.98;26.04
66196;BME280;53000;45.182;5.736;2022-08-14T02:53:43;98489.63;;;26.93;25.97
66196;BME280;53000;45.182;5.736;2022-08-14T02:56:11;98498.00;;;26.88;26.64
66196;BME280;53000;45.182;5.736;2022-08-14T02:58:42;98489.97;;;26.86;26.28
66196;BME280;53000;45.182;5.736;2022-08-14T03:01:09;98481.41;;;26.83;26.51
66196;BME280;53000;45.182;5.736;2022-08-14T03:03:35;98477.84;;;26.77;26.75
66196;BME280;53000;45.182;5.736;2022-08-14T03:06:03;98485.66;;;26.75;26.74
66196;BME280;53000;45.182;5.736;2022-08-14T03:08:29;98489.84;;;26.72;26.26
66196;BME280;53000;45.182;5.736;2022-08-14T03:11:01;98478.81;;;26.67;25.96
66196;BME280;53000;45.182;5.736;2022-08-14T03:13:31;98464.69;;;26.64;26.67
66196;BME280;53000;45.182;5.736;2022-08-14T03:15:58;98459.44;;;26.62;26.77
66196;BME280;53000;45.182;5.736;2022-08-14T03:18:25;98449.47;;;26.61;26.51
66196;BME280;53000;45.182;5.736;2022-08-14T03:20:51;98445.00;;;26.60;26.69
66196;BME280;53000;45.182;5.736;2022-08-14T03:23:18;98445.06;;;26.55;26.12
66196;BME280;53000;45.182;5.736;2022-08-14T03:25:44;98448.19;;;26.48;26.87
66196;BME280;53000;45.182;5.736;2022-08-14T03:28:10;98440.50;;;26.40;26.78
66196;BME280;53000;45.182;5.736;2022-08-14T03:30:36;98447.81;;;26.31;27.10
66196;BME280;53000;45.182;5.736;2022-08-14T03:33:03;98442.03;;;26.27;26.86
66196;BME280;53000;45.182;5.736;2022-08-14T03:35:29;98436.72;;;26.31;27.11
66196;BME280;53000;45.182;5.736;2022-08-14T03:38:06;98431.75;;;26.28;27.09
66196;BME280;53000;45.182;5.736;2022-08-14T03:40:33;98441.13;;;26.32;26.96
66196;BME280;53000;45.182;5.736;2022-08-14T03:42:58;98426.44;;;26.31;27.48
66196;BME280;53000;45.182;5.736;2022-08-14T03:45:24;98436.41;;;26.32;27.40
66196;BME280;53000;45.182;5.736;2022-08-14T03:47:49;98434.22;;;26.29;27.36
66196;BME280;53000;45.182;5.736;2022-08-14T03:50:15;98449.81;;;26.25;27.48
66196;BME280;53000;45.182;5.736;2022-08-14T03:52:40;98458.94;;;26.26;27.20
66196;BME280;53000;45.182;5.736;2022-08-14T03:55:10;98445.41;;;26.24;27.23
66196;BME280;53000;45.182;5.736;2022-08-14T03:57:38;98431.81;;;26.23;28.34
66196;BME280;53000;45.182;5.736;2022-08-14T04:00:09;98426.28;;;26.18;27.41
66196;BME280;53000;45.182;5.736;2022-08-14T04:02:38;98434.41;;;26.14;28.24
66196;BME280;53000;45.182;5.736;2022-08-14T04:05:06;98432.72;;;26.13;28.35
66196;BME280;53000;45.182;5.736;2022-08-14T04:07:32;98433.84;;;26.12;28.03
66196;BME280;53000;45.182;5.736;2022-08-14T04:09:57;98434.97;;;26.11;28.39
66196;BME280;53000;45.182;5.736;2022-08-14T04:12:23;98423.31;;;26.09;27.64
66196;BME280;53000;45.182;5.736;2022-08-14T04:14:48;98426.69;;;26.06;28.76
66196;BME280;53000;45.182;5.736;2022-08-14T04:17:17;98412.59;;;26.02;28.79
66196;BME280;53000;45.182;5.736;2022-08-14T04:19:44;98417.31;;;26.02;28.50
66196;BME280;53000;45.182;5.736;2022-08-14T04:22:10;98420.69;;;25.99;28.58
66196;BME280;53000;45.182;5.736;2022-08-14T04:24:37;98430.91;;;25.98;28.80
66196;BME280;53000;45.182;5.736;2022-08-14T04:27:03;98437.59;;;25.97;29.24
66196;BME280;53000;45.182;5.736;2022-08-14T04:29:29;98443.16;;;25.97;29.00
66196;BME280;53000;45.182;5.736;2022-08-14T04:31:55;98439.28;;;25.93;28.97
66196;BME280;53000;45.182;5.736;2022-08-14T04:34:21;98432.63;;;25.94;28.41
66196;BME280;53000;45.182;5.736;2022-08-14T04:36:46;98434.84;;;25.92;28.39
66196;BME280;53000;45.182;5.736;2022-08-14T04:39:30;98428.22;;;25.88;28.25
66196;BME280;53000;45.182;5.736;2022-08-14T04:42:14;98412.25;;;25.75;28.77
66196;BME280;53000;45.182;5.736;2022-08-14T04:44:58;98410.34;;;25.70;29.16
66196;BME280;53000;45.182;5.736;2022-08-14T04:47:24;98412.56;;;25.73;29.17
66196;BME280;53000;45.182;5.736;2022-08-14T04:50:08;98413.91;;;25.76;29.02
66196;BME280;53000;45.182;5.736;2022-08-14T04:52:33;98420.22;;;25.81;29.28
66196;BME280;53000;45.182;5.736;2022-08-14T04:54:58;98442.38;;;25.86;28.83
66196;BME280;53000;45.182;5.736;2022-08-14T04:57:24;98455.97;;;25.88;28.79
66196;BME280;53000;45.182;5.736;2022-08-14T04:59:50;98463.72;;;25.91;28.65
66196;BME280;53000;45.182;5.736;2022-08-14T05:02:17;98460.94;;;25.91;28.63
66196;BME280;53000;45.182;5.736;2022-08-14T05:04:42;98483.94;;;25.91;28.41
66196;BME280;53000;45.182;5.736;2022-08-14T05:07:08;98486.44;;;25.93;28.75
66196;BME280;53000;45.182;5.736;2022-08-14T05:09:33;98494.75;;;25.93;28.45
66196;BME280;53000;45.182;5.736;2022-08-14T05:11:58;98510.50;;;25.98;28.36
66196;BME280;53000;45.182;5.736;2022-08-14T05:14:24;98514.09;;;26.03;28.22
66196;BME280;53000;45.182;5.736;2022-08-14T05:16:50;98522.63;;;26.07;27.59
66196;BME280;53000;45.182;5.736;2022-08-14T05:19:16;98504.84;;;26.13;27.89
66196;BME280;53000;45.182;5.736;2022-08-14T05:21:41;98504.50;;;26.20;27.87
66196;BME280;53000;45.182;5.736;2022-08-14T05:24:07;98491.69;;;26.24;27.50
66196;BME280;53000;45.182;5.736;2022-08-14T05:26:36;98486.94;;;26.29;27.22
66196;BME280;53000;45.182;5.736;2022-08-14T05:29:06;98463.34;;;26.32;27.03
66196;BME280;53000;45.182;5.736;2022-08-14T05:31:33;98476.91;;;26.34;26.97
66196;BME280;53000;45.182;5.736;2022-08-14T05:34:04;98487.19;;;26.33;26.69
66196;BME280;53000;45.182;5.736;2022-08-14T05:36:29;98488.31;;;26.32;27.32
66196;BME280;53000;45.182;5.736;2022-08-14T05:38:54;98495.56;;;26.28;27.32
66196;BME280;53000;45.182;5.736;2022-08-14T05:41:20;98493.91;;;26.27;27.22
66196;BME280;53000;45.182;5.736;2022-08-14T05:43:46;98489.19;;;26.27;27.30
66196;BME280;53000;45.182;5.736;2022-08-14T05:46:15;98480.56;;;26.29;27.72
66196;BME280;53000;45.182;5.736;2022-08-14T05:48:46;98488.59;;;26.30;28.10
66196;BME280;53000;45.182;5.736;2022-08-14T05:51:12;98496.91;;;26.30;27.86
66196;BME280;53000;45.182;5.736;2022-08-14T05:53:38;98515.22;;;26.31;27.82
66196;BME280;53000;45.182;5.736;2022-08-14T05:56:04;98527.69;;;26.34;27.91
66196;BME280;53000;45.182;5.736;2022-08-14T05:58:29;98525.97;;;26.38;27.66
66196;BME280;53000;45.182;5.736;2022-08-14T06:00:54;98544.00;;;26.41;28.08
66196;BME280;53000;45.182;5.736;2022-08-14T06:03:21;98565.09;;;26.37;27.83
66196;BME280;53000;45.182;5.736;2022-08-14T06:05:51;98582.88;;;26.36;28.69
66196;BME280;53000;45.182;5.736;2022-08-14T06:08:19;98591.53;;;26.29;28.26
66196;BME280;53000;45.182;5.736;2022-08-14T06:10:45;98604.63;;;26.23;28.52
66196;BME280;53000;45.182;5.736;2022-08-14T06:13:11;98614.09;;;26.17;30.03
66196;BME280;53000;45.182;5.736;2022-08-14T06:15:37;98617.44;;;26.14;30.29
66196;BME280;53000;45.182;5.736;2022-08-14T06:18:02;98635.19;;;26.13;31.86
66196;BME280;53000;45.182;5.736;2022-08-14T06:20:29;98647.69;;;26.10;30.67
66196;BME280;53000;45.182;5.736;2022-08-14T06:22:54;98655.19;;;26.10;31.39
66196;BME280;53000;45.182;5.736;2022-08-14T06:25:20;98691.25;;;26.05;32.91
66196;BME280;53000;45.182;5.736;2022-08-14T06:27:47;98715.75;;;25.93;32.88
66196;BME280;53000;45.182;5.736;2022-08-14T06:30:19;98761.25;;;25.76;34.70
66196;BME280;53000;45.182;5.736;2022-08-14T06:32:45;98773.25;;;25.41;38.39
66196;BME280;53000;45.182;5.736;2022-08-14T06:35:12;98769.31;;;24.80;40.56
66196;BME280;53000;45.182;5.736;2022-08-14T06:37:52;98785.44;;;24.10;42.96
66196;BME280;53000;45.182;5.736;2022-08-14T06:40:28;98813.19;;;23.35;48.47
66196;BME280;53000;45.182;5.736;2022-08-14T06:43:15;98822.28;;;22.76;45.36
66196;BME280;53000;45.182;5.736;2022-08-14T06:45:42;98822.00;;;22.51;46.27
66196;BME280;53000;45.182;5.736;2022-08-14T06:48:19;98796.31;;;22.23;46.71
66196;BME280;53000;45.182;5.736;2022-08-14T06:50:46;98773.53;;;22.11;45.89
66196;BME280;53000;45.182;5.736;2022-08-14T06:53:11;98753.66;;;22.09;52.27
66196;BME280;53000;45.182;5.736;2022-08-14T06:55:39;98762.44;;;22.05;51.95
66196;BME280;53000;45.182;5.736;2022-08-14T06:58:10;98777.25;;;21.99;50.50
66196;BME280;53000;45.182;5.736;2022-08-14T07:00:35;98782.44;;;21.96;56.33
66196;BME280;53000;45.182;5.736;2022-08-14T07:03:00;98776.22;;;21.83;53.42
66196;BME280;53000;45.182;5.736;2022-08-14T07:05:45;98771.41;;;21.74;52.64
66196;BME280;53000;45.182;5.736;2022-08-14T07:08:25;98794.28;;;21.74;52.58
66196;BME280;53000;45.182;5.736;2022-08-14T07:10:52;98805.38;;;21.79;50.10
66196;BME280;53000;45.182;5.736;2022-08-14T07:13:18;98802.38;;;21.81;58.09
66196;BME280;53000;45.182;5.736;2022-08-14T07:15:45;98801.47;;;21.75;56.57
66196;BME280;53000;45.182;5.736;2022-08-14T07:18:14;98810.50;;;21.71;57.74
66196;BME280;53000;45.182;5.736;2022-08-14T07:20:40;98815.25;;;21.75;54.63
66196;BME280;53000;45.182;5.736;2022-08-14T07:23:07;98829.94;;;21.81;55.86
66196;BME280;53000;45.182;5.736;2022-08-14T07:25:35;98835.75;;;21.84;53.54
66196;BME280;53000;45.182;5.736;2022-08-14T07:28:08;98850.19;;;21.92;53.72
66196;BME280;53000;45.182;5.736;2022-08-14T07:30:33;98849.16;;;21.98;56.12
66196;BME280;53000;45.182;5.736;2022-08-14T07:33:00;98849.72;;;22.00;55.56
66196;BME280;53000;45.182;5.736;2022-08-14T07:35:25;98843.19;;;22.06;54.63
66196;BME280;53000;45.182;5.736;2022-08-14T07:37:51;98841.59;;;22.10;53.80
66196;BME280;53000;45.182;5.736;2022-08-14T07:40:16;98835.59;;;22.13;55.88
66196;BME280;53000;45.182;5.736;2022-08-14T07:42:42;98827.56;;;22.12;54.12
66196;BME280;53000;45.182;5.736;2022-08-14T07:45:08;98818.53;;;22.16;55.05
66196;BME280;53000;45.182;5.736;2022-08-14T07:47:38;98825.97;;;22.16;55.54
66196;BME280;53000;45.182;5.736;2022-08-14T07:50:11;98834.53;;;22.19;53.97
66196;BME280;53000;45.182;5.736;2022-08-14T07:52:37;98842.81;;;22.19;56.01
66196;BME280;53000;45.182;5.736;2022-08-14T07:55:04;98857.94;;;22.17;55.03
66196;BME280;53000;45.182;5.736;2022-08-14T07:57:30;98874.44;;;22.12;55.21
66196;BME280;53000;45.182;5.736;2022-08-14T07:59:55;98892.03;;;22.11;55.15
66196;BME280;53000;45.182;5.736;2022-08-14T08:02:21;98901.34;;;22.04;53.99
66196;BME280;53000;45.182;5.736;2022-08-14T08:04:50;98898.50;;;21.99;58.08
66196;BME280;53000;45.182;5.736;2022-08-14T08:07:18;98877.16;;;21.90;55.75
66196;BME280;53000;45.182;5.736;2022-08-14T08:09:48;98873.16;;;21.80;56.27
66196;BME280;53000;45.182;5.736;2022-08-14T08:12:15;98886.28;;;21.73;55.14
66196;BME280;53000;45.182;5.736;2022-08-14T08:14:41;98915.16;;;21.71;55.40
66196;BME280;53000;45.182;5.736;2022-08-14T08:17:08;98935.03;;;21.73;54.92
66196;BME280;53000;45.182;5.736;2022-08-14T08:19:34;98939.78;;;21.77;54.94
66196;BME280;53000;45.182;5.736;2022-08-14T08:21:59;98946.47;;;21.81;57.85
66196;BME280;53000;45.182;5.736;2022-08-14T08:24:27;98940.03;;;21.76;54.91
66196;BME280;53000;45.182;5.736;2022-08-14T08:26:53;98939.13;;;21.70;55.65
66196;BME280;53000;45.182;5.736;2022-08-14T08:29:20;98926.44;;;21.69;58.06
66196;BME280;53000;45.182;5.736;2022-08-14T08:31:47;98921.84;;;21.58;56.56
66196;BME280;53000;45.182;5.736;2022-08-14T08:34:13;98938.19;;;21.48;56.91
66196;BME280;53000;45.182;5.736;2022-08-14T08:36:40;98950.41;;;21.40;57.04
66196;BME280;53000;45.182;5.736;2022-08-14T08:39:06;98960.75;;;21.33;56.95
66196;BME280;53000;45.182;5.736;2022-08-14T08:41:41;98968.19;;;21.32;58.18
66196;BME280;53000;45.182;5.736;2022-08-14T08:44:07;98972.16;;;21.24;57.50
66196;BME280;53000;45.182;5.736;2022-08-14T08:46:33;98987.50;;;21.20;58.85
66196;BME280;53000;45.182;5.736;2022-08-14T08:48:58;98995.66;;;21.15;57.44
66196;BME280;53000;45.182;5.736;2022-08-14T08:51:27;99001.63;;;21.12;56.99
66196;BME280;53000;45.182;5.736;2022-08-14T08:56:51;99010.09;;;20.94;57.00
66196;BME280;53000;45.182;5.736;2022-08-14T08:59:23;99010.09;;;20.94;57.08
66196;BME280;53000;45.182;5.736;2022-08-14T09:01:53;99011.88;;;21.00;56.45
66196;BME280;53000;45.182;5.736;2022-08-14T09:04:20;99011.13;;;21.04;56.32
66196;BME280;53000;45.182;5.736;2022-08-14T09:06:46;99008.25;;;21.11;57.64
66196;BME280;53000;45.182;5.736;2022-08-14T09:09:29;99012.75;;;21.17;57.10
66196;BME280;53000;45.182;5.736;2022-08-14T09:11:57;99009.50;;;21.20;56.52
66196;BME280;53000;45.182;5.736;2022-08-14T09:14:24;99002.34;;;21.19;55.65
66196;BME280;53000;45.182;5.736;2022-08-14T09:16:50;99002.66;;;21.06;58.26
66196;BME280;53000;45.182;5.736;2022-08-14T09:19:16;99012.34;;;20.97;56.30
66196;BME280;53000;45.182;5.736;2022-08-14T09:21:43;99031.66;;;20.85;58.29
66196;BME280;53000;45.182;5.736;2022-08-14T09:24:09;99032.16;;;20.70;57.53
66196;BME280;53000;45.182;5.736;2022-08-14T09:26:36;99040.41;;;20.58;58.66
66196;BME280;53000;45.182;5.736;2022-08-14T09:29:03;99040.50;;;20.52;57.44
66196;BME280;53000;45.182;5.736;2022-08-14T09:31:29;99047.91;;;20.51;58.69
66196;BME280;53000;45.182;5.736;2022-08-14T09:37:22;99037.75;;;20.52;57.28
66196;BME280;53000;45.182;5.736;2022-08-14T09:47:44;99045.16;;;20.51;60.24
66196;BME280;53000;45.182;5.736;2022-08-14T09:50:20;99036.81;;;20.58;58.35
66196;BME280;53000;45.182;5.736;2022-08-14T09:52:58;99024.38;;;20.67;58.98
66196;BME280;53000;45.182;5.736;2022-08-14T09:55:27;99005.25;;;20.72;58.01
66196;BME280;53000;45.182;5.736;2022-08-14T09:58:11;99000.56;;;20.85;58.29
66196;BME280;53000;45.182;5.736;2022-08-14T10:00:44;98991.91;;;20.93;58.76
66196;BME280;53000;45.182;5.736;2022-08-14T10:03:10;98986.50;;;20.98;59.16
66196;BME280;53000;45.182;5.736;2022-08-14T10:05:36;98976.44;;;21.03;60.48
66196;BME280;53000;45.182;5.736;2022-08-14T10:08:03;98989.47;;;21.08;60.11
66196;BME280;53000;45.182;5.736;2022-08-14T10:10:39;98989.22;;;21.10;57.52
66196;BME280;53000;45.182;5.736;2022-08-14T10:13:07;98982.97;;;21.14;58.31
66196;BME280;53000;45.182;5.736;2022-08-14T10:15:45;98974.00;;;21.19;60.00
66196;BME280;53000;45.182;5.736;2022-08-14T10:18:12;98963.38;;;21.11;60.24
66196;BME280;53000;45.182;5.736;2022-08-14T10:20:41;98958.03;;;21.04;59.30
66196;BME280;53000;45.182;5.736;2022-08-14T10:23:16;98956.72;;;20.95;59.22
66196;BME280;53000;45.182;5.736;2022-08-14T10:25:45;98949.06;;;20.97;58.86
66196;BME280;53000;45.182;5.736;2022-08-14T10:28:12;98939.97;;;20.96;60.17
66196;BME280;53000;45.182;5.736;2022-08-14T10:30:40;98945.47;;;20.96;58.67
66196;BME280;53000;45.182;5.736;2022-08-14T10:33:06;98939.38;;;20.94;60.37
66196;BME280;53000;45.182;5.736;2022-08-14T10:35:39;98935.31;;;20.97;59.81
66196;BME280;53000;45.182;5.736;2022-08-14T10:38:05;98943.31;;;20.98;60.37
66196;BME280;53000;45.182;5.736;2022-08-14T10:40:31;98943.41;;;21.03;61.85
66196;BME280;53000;45.182;5.736;2022-08-14T10:42:57;98929.75;;;21.09;59.87
66196;BME280;53000;45.182;5.736;2022-08-14T10:45:33;98902.31;;;21.14;60.04
66196;BME280;53000;45.182;5.736;2022-08-14T10:47:58;98878.09;;;21.28;58.92
66196;BME280;53000;45.182;5.736;2022-08-14T10:50:39;98886.19;;;21.34;60.55
66196;BME280;53000;45.182;5.736;2022-08-14T10:53:05;98876.69;;;21.42;59.63
66196;BME280;53000;45.182;5.736;2022-08-14T10:55:40;98883.59;;;21.61;59.43
66196;BME280;53000;45.182;5.736;2022-08-14T10:58:07;98874.44;;;21.73;59.64
66196;BME280;53000;45.182;5.736;2022-08-14T11:00:40;98858.88;;;21.83;58.36
66196;BME280;53000;45.182;5.736;2022-08-14T11:03:17;98850.25;;;21.97;59.02
66196;BME280;53000;45.182;5.736;2022-08-14T11:05:45;98858.16;;;22.10;59.06
66196;BME280;53000;45.182;5.736;2022-08-14T11:08:12;98848.78;;;22.28;59.31
66196;BME280;53000;45.182;5.736;2022-08-14T11:10:46;98828.56;;;22.44;58.97
66196;BME280;53000;45.182;5.736;2022-08-14T11:13:23;98812.13;;;22.55;59.60
66196;BME280;53000;45.182;5.736;2022-08-14T11:15:50;98806.16;;;22.63;60.06
66196;BME280;53000;45.182;5.736;2022-08-14T11:18:17;98825.00;;;22.71;60.13
66196;BME280;53000;45.182;5.736;2022-08-14T11:20:54;98814.63;;;22.83;59.39
66196;BME280;53000;45.182;5.736;2022-08-14T11:23:26;98799.88;;;23.00;59.03
66196;BME280;53000;45.182;5.736;2022-08-14T11:25:53;98797.84;;;23.17;59.13
66196;BME280;53000;45.182;5.736;2022-08-14T11:28:25;98803.25;;;23.39;60.31
66196;BME280;53000;45.182;5.736;2022-08-14T11:30:51;98814.44;;;23.55;58.36
66196;BME280;53000;45.182;5.736;2022-08-14T11:33:25;98808.44;;;23.73;58.00
66196;BME280;53000;45.182;5.736;2022-08-14T11:35:58;98819.91;;;23.92;59.42
66196;BME280;53000;45.182;5.736;2022-08-14T11:38:26;98818.03;;;24.03;57.24
66196;BME280;53000;45.182;5.736;2022-08-14T11:40:55;98812.56;;;24.13;57.42
66196;BME280;53000;45.182;5.736;2022-08-14T11:43:21;98798.78;;;24.23;56.95
66196;BME280;53000;45.182;5.736;2022-08-14T11:45:46;98789.16;;;24.36;57.17
66196;BME280;53000;45.182;5.736;2022-08-14T11:50:41;98758.81;;;24.67;56.82
66196;BME280;53000;45.182;5.736;2022-08-14T11:53:18;98762.16;;;24.79;55.95
66196;BME280;53000;45.182;5.736;2022-08-14T11:55:45;98753.84;;;24.89;56.71
66196;BME280;53000;45.182;5.736;2022-08-14T11:58:11;98731.69;;;24.95;55.76
66196;BME280;53000;45.182;5.736;2022-08-14T12:00:51;98731.97;;;25.03;55.35
66196;BME280;53000;45.182;5.736;2022-08-14T12:03:43;98730.03;;;25.04;55.51
66196;BME280;53000;45.182;5.736;2022-08-14T12:06:13;98711.75;;;25.13;54.88
66196;BME280;53000;45.182;5.736;2022-08-14T12:08:39;98705.97;;;25.20;54.40
66196;BME280;53000;45.182;5.736;2022-08-14T12:11:06;98694.88;;;25.25;54.58
66196;BME280;53000;45.182;5.736;2022-08-14T12:13:33;98690.69;;;25.17;54.56
66196;BME280;53000;45.182;5.736;2022-08-14T12:16:04;98689.88;;;25.01;55.03
66196;BME280;53000;45.182;5.736;2022-08-14T12:18:39;98679.38;;;24.98;54.92
66196;BME280;53000;45.182;5.736;2022-08-14T12:21:21;98668.84;;;24.95;54.96
66196;BME280;53000;45.182;5.736;2022-08-14T12:24:00;98671.63;;;24.95;55.36
66196;BME280;53000;45.182;5.736;2022-08-14T12:26:26;98668.28;;;24.83;55.76
66196;BME280;53000;45.182;5.736;2022-08-14T12:29:06;98652.28;;;24.75;55.73
66196;BME280;53000;45.182;5.736;2022-08-14T12:31:33;98640.06;;;24.76;56.17
66196;BME280;53000;45.182;5.736;2022-08-14T12:34:01;98638.13;;;24.76;55.15
66196;BME280;53000;45.182;5.736;2022-08-14T12:36:27;98640.63;;;24.78;55.93
66196;BME280;53000;45.182;5.736;2022-08-14T12:39:04;98645.63;;;24.71;55.24
66196;BME280;53000;45.182;5.736;2022-08-14T12:41:48;98637.88;;;24.67;55.27
66196;BME280;53000;45.182;5.736;2022-08-14T12:44:28;98626.25;;;24.76;55.08
66196;BME280;53000;45.182;5.736;2022-08-14T12:47:07;98631.75;;;24.91;55.34
66196;BME280;53000;45.182;5.736;2022-08-14T12:49:36;98626.78;;;24.98;55.18
66196;BME280;53000;45.182;5.736;2022-08-14T12:52:02;98617.84;;;25.17;55.84
66196;BME280;53000;45.182;5.736;2022-08-14T12:54:27;98619.47;;;25.38;55.25
66196;BME280;53000;45.182;5.736;2022-08-14T12:57:07;98617.47;;;25.54;54.47
66196;BME280;53000;45.182;5.736;2022-08-14T12:59:34;98611.28;;;25.73;53.74
66196;BME280;53000;45.182;5.736;2022-08-14T13:02:00;98616.47;;;25.95;54.40
66196;BME280;53000;45.182;5.736;2022-08-14T13:04:26;98611.31;;;26.17;53.27
66196;BME280;53000;45.182;5.736;2022-08-14T13:06:59;98606.41;;;26.43;52.38
66196;BME280;53000;45.182;5.736;2022-08-14T13:09:28;98594.63;;;26.62;51.89
66196;BME280;53000;45.182;5.736;2022-08-14T13:11:55;98586.19;;;26.72;51.83
66196;BME280;53000;45.182;5.736;2022-08-14T13:14:23;98576.03;;;26.86;51.67
66196;BME280;53000;45.182;5.736;2022-08-14T13:16:52;98564.34;;;26.89;50.47
66196;BME280;53000;45.182;5.736;2022-08-14T13:19:19;98571.34;;;26.87;50.53
66196;BME280;53000;45.182;5.736;2022-08-14T13:21:46;98570.81;;;26.85;50.33
66196;BME280;53000;45.182;5.736;2022-08-14T13:24:13;98561.88;;;26.88;50.49